Time;durP1;ratioP1;P1;durP2;ratioP2;P2;SDS_P1;SDS_P2;PMS_P1;PMS_P2;Temp;Humidity;BMP_temperature;BMP_pressure;BME280_temperature;BME280_humidity;BME280_pressure;Samples;Min_cycle;Max_cycle;Signal;HPM_P1;HPM_P2
2023/04/22 00:01:20;;;;;;;;;;;24.00;41.00;;;;;;6136995;28;76108;-60
2023/04/22 00:04:20;;;;;;;;;;;24.00;41.00;;;;;;6136853;28;76305;-59
2023/04/22 00:07:21;;;;;;;;;;;24.10;40.90;;;;;;6136116;28;75108;-60
2023/04/22 00:10:21;;;;;;;;;;;24.00;40.90;;;;;;6137129;28;75650;-60
2023/04/22 00:13:22;;;;;;;;;;;24.00;40.90;;;;;;6137851;28;77568;-59
2023/04/22 00:16:22;;;;;;;;;;;24.00;40.90;;;;;;6136831;28;76054;-57
2023/04/22 00:19:23;;;;;;;;;;;24.00;40.90;;;;;;6136324;28;76104;-57
2023/04/22 00:22:23;;;;;;;;;;;24.00;40.80;;;;;;6137717;28;76465;-57
2023/04/22 00:25:24;;;;;;;;;;;24.00;40.80;;;;;;6128554;28;77418;-56
2023/04/22 00:28:24;;;;;;;;;;;24.00;40.90;;;;;;6135598;28;75926;-54
2023/04/22 00:31:25;;;;;;;;;;;24.00;40.90;;;;;;6135018;28;75219;-57
2023/04/22 00:34:25;;;;;;;;;;;23.90;40.80;;;;;;6137468;28;75374;-69
2023/04/22 00:37:27;;;;;;;;;;;24.00;41.00;;;;;;6135311;28;75279;-69
2023/04/22 00:40:27;;;;;;;;;;;24.00;41.00;;;;;;6134191;28;75868;-69
2023/04/22 00:43:28;;;;;;;;;;;24.00;41.00;;;;;;6136870;28;75068;-70
2023/04/22 00:46:28;;;;;;;;;;;24.00;41.10;;;;;;6136209;28;75242;-70
2023/04/22 00:49:29;;;;;;;;;;;24.00;41.10;;;;;;6134862;28;77887;-69
2023/04/22 00:52:30;;;;;;;;;;;24.00;41.20;;;;;;6136754;28;75922;-69
2023/04/22 00:55:30;;;;;;;;;;;23.90;41.20;;;;;;6136493;28;76411;-67
2023/04/22 00:58:31;;;;;;;;;;;23.90;41.00;;;;;;6134749;28;78292;-66
2023/04/22 01:01:31;;;;;;;;;;;23.90;41.10;;;;;;6135941;28;75089;-67
2023/04/22 01:04:32;;;;;;;;;;;23.90;41.10;;;;;;6135698;28;76419;-67
2023/04/22 01:07:33;;;;;;;;;;;23.90;41.20;;;;;;6136024;28;76970;-67
2023/04/22 01:10:33;;;;;;;;;;;23.90;41.20;;;;;;6135750;28;77265;-66
2023/04/22 01:13:37;;;;;;;;;;;23.90;41.10;;;;;;6150574;28;76750;-67
2023/04/22 01:16:37;;;;;;;;;;;23.90;41.10;;;;;;6136963;28;75640;-65
2023/04/22 01:19:38;;;;;;;;;;;24.00;41.20;;;;;;6136513;28;75840;-66
2023/04/22 01:22:39;;;;;;;;;;;24.00;41.20;;;;;;6136159;28;75173;-66
2023/04/22 01:25:39;;;;;;;;;;;23.90;41.10;;;;;;6132683;28;76999;-66
2023/04/22 01:28:40;;;;;;;;;;;24.00;41.20;;;;;;6133972;28;75560;-66
2023/04/22 01:31:40;;;;;;;;;;;24.00;41.10;;;;;;6134776;28;75675;-66
2023/04/22 01:34:41;;;;;;;;;;;24.00;41.10;;;;;;6135811;28;76425;-68
2023/04/22 01:37:41;;;;;;;;;;;24.00;41.10;;;;;;6133303;28;78028;-67
2023/04/22 01:40:42;;;;;;;;;;;23.90;41.10;;;;;;6153743;28;76790;-67
2023/04/22 01:43:43;;;;;;;;;;;23.90;41.10;;;;;;6148425;28;76246;-66
2023/04/22 01:46:43;;;;;;;;;;;23.90;41.00;;;;;;6163574;28;77940;-66
2023/04/22 01:49:44;;;;;;;;;;;23.90;41.00;;;;;;6148650;28;79367;-66
2023/04/22 01:52:46;;;;;;;;;;;23.80;40.90;;;;;;6134755;28;75724;-63
2023/04/22 01:55:46;;;;;;;;;;;23.90;41.20;;;;;;6134763;28;75912;-63
2023/04/22 01:58:47;;;;;;;;;;;23.80;41.10;;;;;;6134621;28;75788;-62
2023/04/22 02:01:48;;;;;;;;;;;23.80;41.20;;;;;;6135317;28;75252;-65
2023/04/22 02:04:48;;;;;;;;;;;23.80;41.10;;;;;;6133574;28;77164;-58
2023/04/22 02:07:49;;;;;;;;;;;23.80;41.10;;;;;;6153047;28;78347;-58
2023/04/22 02:10:50;;;;;;;;;;;23.90;41.10;;;;;;6174375;28;78097;-58
2023/04/22 02:13:51;;;;;;;;;;;23.90;41.10;;;;;;6159135;28;75684;-58
2023/04/22 02:16:51;;;;;;;;;;;23.90;41.10;;;;;;6173483;28;78532;-57
2023/04/22 02:19:52;;;;;;;;;;;23.80;41.10;;;;;;6158921;28;74738;-58
2023/04/22 02:22:52;;;;;;;;;;;23.80;41.10;;;;;;6148982;28;77815;-60
2023/04/22 02:25:53;;;;;;;;;;;23.80;41.10;;;;;;6130782;28;75791;-58
2023/04/22 02:28:54;;;;;;;;;;;23.80;41.10;;;;;;6153811;28;75422;-59
2023/04/22 02:31:54;;;;;;;;;;;23.80;41.10;;;;;;6159351;28;75884;-58
2023/04/22 02:34:55;;;;;;;;;;;23.80;41.20;;;;;;6149020;28;78464;-58
2023/04/22 02:37:55;;;;;;;;;;;23.80;41.20;;;;;;6158675;28;75002;-58
2023/04/22 02:40:59;;;;;;;;;;;23.80;41.20;;;;;;6148192;28;78548;-66
2023/04/22 02:43:59;;;;;;;;;;;23.80;41.20;;;;;;6171653;28;78217;-65
2023/04/22 02:47:02;;;;;;;;;;;23.80;41.20;;;;;;6148707;28;78189;-65
2023/04/22 02:50:03;;;;;;;;;;;23.80;41.30;;;;;;6156950;28;75336;-65
2023/04/22 02:53:03;;;;;;;;;;;23.80;41.30;;;;;;6144716;28;78574;-68
2023/04/22 02:56:04;;;;;;;;;;;23.80;41.90;;;;;;6169738;28;75830;-66
2023/04/22 02:59:05;;;;;;;;;;;23.80;41.20;;;;;;6146833;28;76689;-65
2023/04/22 03:02:05;;;;;;;;;;;23.80;41.20;;;;;;6135924;28;77957;-69
2023/04/22 03:05:16;;;;;;;;;;;23.80;41.20;;;;;;6168898;28;75518;-67
2023/04/22 03:08:17;;;;;;;;;;;23.80;41.20;;;;;;6153471;28;76748;-66
2023/04/22 03:11:17;;;;;;;;;;;23.80;41.20;;;;;;6159056;28;76641;-65
2023/04/22 03:14:18;;;;;;;;;;;23.80;41.10;;;;;;6152776;28;75261;-66
2023/04/22 03:17:19;;;;;;;;;;;23.80;41.10;;;;;;6160708;28;76113;-64
2023/04/22 03:20:20;;;;;;;;;;;23.80;41.10;;;;;;6154888;28;81649;-66
2023/04/22 03:23:21;;;;;;;;;;;23.80;41.10;;;;;;6161294;28;77076;-66
2023/04/22 03:26:22;;;;;;;;;;;23.80;40.90;;;;;;6173782;28;78503;-66
2023/04/22 03:29:23;;;;;;;;;;;23.80;41.10;;;;;;6160368;28;77829;-67
2023/04/22 03:32:23;;;;;;;;;;;23.80;41.10;;;;;;6159590;28;78697;-66
2023/04/22 03:35:34;;;;;;;;;;;23.80;40.90;;;;;;6156126;28;78006;-67
2023/04/22 03:38:35;;;;;;;;;;;23.80;41.00;;;;;;6157693;28;77196;-68
2023/04/22 03:41:36;;;;;;;;;;;23.90;40.90;;;;;;6155823;28;78171;-66
2023/04/22 03:44:36;;;;;;;;;;;24.00;40.90;;;;;;6157381;28;77923;-61
2023/04/22 03:47:37;;;;;;;;;;;24.00;41.10;;;;;;6174936;28;77842;-69
2023/04/22 03:50:48;;;;;;;;;;;24.00;41.10;;;;;;6160236;28;77531;-67
2023/04/22 03:53:50;;;;;;;;;;;24.00;41.80;;;;;;6176623;28;78361;-69
2023/04/22 03:56:54;;;;;;;;;;;24.00;41.80;;;;;;6160751;28;78697;-68
2023/04/22 03:59:56;;;;;;;;;;;24.00;42.10;;;;;;6179933;28;77582;-69
2023/04/22 04:02:57;;;;;;;;;;;24.00;42.10;;;;;;6168717;28;77828;-69
2023/04/22 04:06:00;;;;;;;;;;;24.00;42.20;;;;;;6165297;28;78296;-69
2023/04/22 04:09:01;;;;;;;;;;;24.10;42.40;;;;;;6172806;28;77050;-70
2023/04/22 04:12:02;;;;;;;;;;;24.10;42.30;;;;;;6158393;28;77971;-70
2023/04/22 04:15:07;;;;;;;;;;;24.10;42.20;;;;;;6174169;28;77785;-57
2023/04/22 04:18:08;;;;;;;;;;;24.10;42.20;;;;;;6154318;28;78324;-56
2023/04/22 04:21:11;;;;;;;;;;;24.10;42.20;;;;;;6154505;28;75952;-56
2023/04/22 04:24:18;;;;;;;;;;;24.10;42.20;;;;;;6155343;28;77504;-57
2023/04/22 04:27:22;;;;;;;;;;;24.20;42.20;;;;;;6148921;28;78410;-57
2023/04/22 04:30:26;;;;;;;;;;;24.20;42.20;;;;;;6130043;28;78576;-57
2023/04/22 04:33:31;;;;;;;;;;;24.20;42.30;;;;;;6143210;28;80191;-68
2023/04/22 04:36:31;;;;;;;;;;;24.20;42.30;;;;;;6137819;28;75982;-69
2023/04/22 04:39:43;;;;;;;;;;;24.20;42.30;;;;;;6138188;28;75917;-69
2023/04/22 04:42:45;;;;;;;;;;;24.20;42.10;;;;;;6155093;28;78215;-68
2023/04/22 04:45:52;;;;;;;;;;;24.20;42.10;;;;;;6157385;28;78227;-69
2023/04/22 04:48:59;;;;;;;;;;;24.20;42.10;;;;;;6138088;28;77057;-70
2023/04/22 04:52:03;;;;;;;;;;;24.20;42.20;;;;;;6146707;28;75842;-67
2023/04/22 04:55:04;;;;;;;;;;;24.20;42.50;;;;;;6150846;28;77128;-65
2023/04/22 04:58:07;;;;;;;;;;;24.10;42.60;;;;;;6144610;28;76566;-69
2023/04/22 05:01:07;;;;;;;;;;;24.20;42.50;;;;;;6151999;28;78119;-66
2023/04/22 05:04:08;;;;;;;;;;;24.20;42.20;;;;;;6156494;28;76871;-65
2023/04/22 05:07:12;;;;;;;;;;;24.10;42.40;;;;;;6156367;28;76433;-67
2023/04/22 05:10:14;;;;;;;;;;;24.10;42.70;;;;;;6127066;28;75342;-59
2023/04/22 05:13:15;;;;;;;;;;;24.20;43.00;;;;;;6148624;28;75257;-58
2023/04/22 05:16:19;;;;;;;;;;;24.20;43.00;;;;;;6173434;28;78110;-58
2023/04/22 05:19:20;;;;;;;;;;;24.20;42.90;;;;;;6153077;28;76666;-58
2023/04/22 05:22:22;;;;;;;;;;;24.20;43.20;;;;;;6170208;28;77138;-59
2023/04/22 05:25:23;;;;;;;;;;;24.20;42.50;;;;;;6146219;28;80583;-58
2023/04/22 05:28:33;;;;;;;;;;;24.20;42.60;;;;;;6132881;28;75368;-66
2023/04/22 05:31:34;;;;;;;;;;;24.20;42.70;;;;;;6147569;28;78211;-67
2023/04/22 05:34:34;;;;;;;;;;;24.20;42.50;;;;;;6148770;28;80762;-67
2023/04/22 05:37:35;;;;;;;;;;;24.30;42.40;;;;;;6171208;28;77960;-68
2023/04/22 05:40:36;;;;;;;;;;;24.20;42.50;;;;;;6152014;28;79615;-69
2023/04/22 05:43:38;;;;;;;;;;;24.30;42.80;;;;;;6167151;28;76517;-69
2023/04/22 05:46:47;;;;;;;;;;;24.30;43.90;;;;;;6147800;28;77925;-61
2023/04/22 05:49:51;;;;;;;;;;;24.30;43.80;;;;;;6149561;28;77572;-58
2023/04/22 05:53:05;;;;;;;;;;;24.20;44.10;;;;;;6145734;28;78535;-58
2023/04/22 05:56:05;;;;;;;;;;;24.20;44.30;;;;;;6152955;28;75819;-56
2023/04/22 05:59:07;;;;;;;;;;;24.20;44.40;;;;;;6098980;28;80339;-59
2023/04/22 06:02:07;;;;;;;;;;;24.20;44.40;;;;;;6137268;28;78762;-53
2023/04/22 06:05:08;;;;;;;;;;;24.20;44.30;;;;;;6145594;28;79490;-63
2023/04/22 06:08:09;;;;;;;;;;;24.20;44.70;;;;;;6154473;28;75593;-60
2023/04/22 06:11:09;;;;;;;;;;;24.30;44.50;;;;;;6152595;28;78163;-64
2023/04/22 06:14:11;;;;;;;;;;;24.30;44.60;;;;;;6164759;28;77820;-62
2023/04/22 06:17:12;;;;;;;;;;;24.30;44.70;;;;;;6126690;28;76850;-62
2023/04/22 06:20:13;;;;;;;;;;;24.40;44.90;;;;;;6157644;28;78653;-60
2023/04/22 06:23:14;;;;;;;;;;;24.40;44.80;;;;;;6118025;28;77969;-64
2023/04/22 06:26:15;;;;;;;;;;;24.40;44.20;;;;;;6157121;28;77271;-60
2023/04/22 06:29:16;;;;;;;;;;;24.30;42.40;;;;;;6139272;28;78399;-59
2023/04/22 06:32:17;;;;;;;;;;;24.30;41.50;;;;;;6130232;28;76618;-62
2023/04/22 06:35:18;;;;;;;;;;;24.20;40.60;;;;;;6123866;28;77805;-66
2023/04/22 06:38:18;;;;;;;;;;;24.00;39.80;;;;;;6146042;28;76781;-64
2023/04/22 06:41:43;;;;;;;;;;;23.90;39.30;;;;;;6126955;28;75712;-60
2023/04/22 06:45:11;;;;;;;;;;;23.80;39.20;;;;;;6148754;28;75427;-59
2023/04/22 06:48:20;;;;;;;;;;;23.90;39.10;;;;;;6153832;28;76581;-62
2023/04/22 06:51:46;;;;;;;;;;;23.80;39.60;;;;;;6149995;28;82399;-61
2023/04/22 06:54:47;;;;;;;;;;;23.80;39.30;;;;;;6149617;28;80319;-59
2023/04/22 06:57:48;;;;;;;;;;;23.90;39.40;;;;;;6149761;28;78155;-58
2023/04/22 07:00:49;;;;;;;;;;;23.90;40.30;;;;;;6151797;28;77539;-58
2023/04/22 07:03:49;;;;;;;;;;;24.00;39.80;;;;;;6155058;28;75722;-59
2023/04/22 07:06:50;;;;;;;;;;;24.00;40.00;;;;;;6149016;28;77492;-60
2023/04/22 07:09:51;;;;;;;;;;;24.00;39.70;;;;;;6153811;28;76171;-60
2023/04/22 07:12:52;;;;;;;;;;;24.00;39.80;;;;;;6148035;28;75287;-55
2023/04/22 07:15:52;;;;;;;;;;;24.00;39.70;;;;;;6120648;28;76507;-60
2023/04/22 07:18:53;;;;;;;;;;;24.00;40.00;;;;;;6149847;28;75895;-61
2023/04/22 07:21:53;;;;;;;;;;;24.10;39.90;;;;;;6156265;28;76721;-59
2023/04/22 07:24:54;;;;;;;;;;;24.10;39.60;;;;;;6158118;28;76369;-59
2023/04/22 07:27:54;;;;;;;;;;;24.10;39.70;;;;;;6156939;28;75521;-59
2023/04/22 07:30:55;;;;;;;;;;;24.10;39.20;;;;;;6157784;28;76197;-59
2023/04/22 07:33:55;;;;;;;;;;;24.20;39.20;;;;;;6156590;28;75241;-59
2023/04/22 07:36:56;;;;;;;;;;;24.20;38.90;;;;;;6157771;28;79545;-60
2023/04/22 07:39:56;;;;;;;;;;;24.20;39.00;;;;;;6155107;28;77246;-61
2023/04/22 07:42:57;;;;;;;;;;;24.20;39.00;;;;;;6158088;28;75332;-61
2023/04/22 07:45:57;;;;;;;;;;;24.20;38.90;;;;;;6159187;28;75952;-60
2023/04/22 07:48:58;;;;;;;;;;;24.30;38.90;;;;;;6151903;28;76489;-60
2023/04/22 07:51:58;;;;;;;;;;;24.20;38.80;;;;;;6154862;28;76186;-61
2023/04/22 07:54:59;;;;;;;;;;;24.30;38.80;;;;;;6160072;28;75956;-61
2023/04/22 07:58:02;;;;;;;;;;;24.30;39.10;;;;;;6159627;28;76795;-60
2023/04/22 08:01:02;;;;;;;;;;;24.30;39.20;;;;;;6162067;28;75471;-60
2023/04/22 08:04:03;;;;;;;;;;;24.30;39.00;;;;;;6161620;28;75834;-61
2023/04/22 08:07:04;;;;;;;;;;;24.30;39.30;;;;;;6163103;28;75285;-60
2023/04/22 08:10:04;;;;;;;;;;;24.30;39.40;;;;;;6162618;28;75486;-59
2023/04/22 08:13:05;;;;;;;;;;;24.30;39.50;;;;;;6158726;28;75501;-58
2023/04/22 08:16:06;;;;;;;;;;;24.40;39.40;;;;;;6150387;28;75193;-60
2023/04/22 08:19:06;;;;;;;;;;;24.40;39.40;;;;;;6157115;28;75624;-57
2023/04/22 08:22:07;;;;;;;;;;;24.40;39.50;;;;;;6156215;28;75283;-58
2023/04/22 08:25:08;;;;;;;;;;;24.40;39.40;;;;;;6159258;28;76616;-59
2023/04/22 08:28:09;;;;;;;;;;;24.40;39.30;;;;;;6160568;28;75292;-61
2023/04/22 08:31:11;;;;;;;;;;;24.40;39.30;;;;;;6173976;28;75124;-66
2023/04/22 08:34:12;;;;;;;;;;;24.40;39.30;;;;;;6160262;28;75444;-66
2023/04/22 08:37:12;;;;;;;;;;;24.40;39.40;;;;;;6175600;28;77004;-67
2023/04/22 08:40:13;;;;;;;;;;;24.40;39.30;;;;;;6153544;28;76017;-68
2023/04/22 08:43:13;;;;;;;;;;;24.50;39.20;;;;;;6160622;28;75829;-68
2023/04/22 08:46:14;;;;;;;;;;;24.50;39.10;;;;;;6161503;28;77968;-70
2023/04/22 08:49:15;;;;;;;;;;;24.50;39.20;;;;;;6156401;28;76441;-73
2023/04/22 08:52:15;;;;;;;;;;;24.50;39.20;;;;;;6157863;28;75301;-66
2023/04/22 08:55:16;;;;;;;;;;;24.50;39.40;;;;;;6158196;28;75315;-65
2023/04/22 08:58:16;;;;;;;;;;;24.60;39.40;;;;;;6152979;28;77113;-63
2023/04/22 09:01:17;;;;;;;;;;;24.40;38.70;;;;;;6159766;28;80542;-64
2023/04/22 09:04:17;;;;;;;;;;;24.50;39.50;;;;;;6160512;28;75220;-63
2023/04/22 09:07:19;;;;;;;;;;;24.60;39.30;;;;;;6160253;28;75797;-66
2023/04/22 09:10:19;;;;;;;;;;;24.60;38.70;;;;;;6154190;28;76127;-64
2023/04/22 09:13:20;;;;;;;;;;;24.60;37.50;;;;;;6159474;28;76473;-69
2023/04/22 09:16:20;;;;;;;;;;;24.60;36.90;;;;;;6174838;28;78191;-64
2023/04/22 09:19:21;;;;;;;;;;;24.60;37.00;;;;;;6159649;28;75738;-59
2023/04/22 09:22:22;;;;;;;;;;;24.50;35.40;;;;;;6161535;28;75431;-60
2023/04/22 09:25:22;;;;;;;;;;;24.50;35.20;;;;;;6151004;28;75665;-64
2023/04/22 09:28:22;;;;;;;;;;;24.50;34.60;;;;;;6135084;28;77426;-61
2023/04/22 09:31:23;;;;;;;;;;;24.50;34.70;;;;;;6143431;28;76447;-58
2023/04/22 09:34:23;;;;;;;;;;;24.50;34.80;;;;;;6157663;28;75797;-59
2023/04/22 09:37:24;;;;;;;;;;;24.50;34.70;;;;;;6151292;28;76613;-60
2023/04/22 09:40:25;;;;;;;;;;;24.50;34.50;;;;;;6156951;28;76351;-60
2023/04/22 09:43:25;;;;;;;;;;;24.40;34.30;;;;;;6150488;28;75261;-60
2023/04/22 09:46:26;;;;;;;;;;;24.30;33.80;;;;;;6156871;28;75958;-60
2023/04/22 09:49:26;;;;;;;;;;;24.30;33.00;;;;;;6157335;28;75250;-60
2023/04/22 09:52:27;;;;;;;;;;;24.30;33.60;;;;;;6156447;28;75182;-59
2023/04/22 09:55:28;;;;;;;;;;;24.20;33.10;;;;;;6158079;28;75760;-60
2023/04/22 09:58:28;;;;;;;;;;;24.10;33.80;;;;;;6159434;28;75713;-61
2023/04/22 10:01:29;;;;;;;;;;;23.90;32.60;;;;;;6159249;28;78710;-60
2023/04/22 10:04:30;;;;;;;;;;;23.60;32.20;;;;;;6158804;28;75382;-61
2023/04/22 10:07:31;;;;;;;;;;;23.60;33.10;;;;;;6159783;28;75000;-61
2023/04/22 10:10:31;;;;;;;;;;;23.80;33.70;;;;;;6159514;28;75343;-61
2023/04/22 10:13:32;;;;;;;;;;;24.10;33.80;;;;;;6147997;28;76224;-66
2023/04/22 10:16:33;;;;;;;;;;;24.30;34.10;;;;;;6154779;28;75029;-66
2023/04/22 10:19:34;;;;;;;;;;;24.40;34.10;;;;;;6151350;28;80547;-70
2023/04/22 10:22:34;;;;;;;;;;;24.50;34.50;;;;;;6156183;28;76357;-70
2023/04/22 10:25:35;;;;;;;;;;;24.50;34.40;;;;;;6163477;28;75553;-65
2023/04/22 10:28:35;;;;;;;;;;;24.40;32.50;;;;;;6161075;28;75257;-66
2023/04/22 10:31:36;;;;;;;;;;;24.20;32.30;;;;;;6152620;28;75339;-68
2023/04/22 10:34:37;;;;;;;;;;;23.80;32.10;;;;;;6156718;28;75317;-67
2023/04/22 10:37:38;;;;;;;;;;;23.50;31.00;;;;;;6158688;28;77245;-67
2023/04/22 10:40:39;;;;;;;;;;;23.50;31.90;;;;;;6151379;28;75248;-65
2023/04/22 10:43:40;;;;;;;;;;;23.70;32.10;;;;;;6146667;28;75924;-67
2023/04/22 10:46:41;;;;;;;;;;;23.90;32.70;;;;;;6152075;28;75508;-68
2023/04/22 10:49:41;;;;;;;;;;;23.80;31.80;;;;;;6154483;28;75263;-70
2023/04/22 10:52:42;;;;;;;;;;;23.50;31.80;;;;;;6159359;28;75413;-66
2023/04/22 10:55:42;;;;;;;;;;;23.80;32.40;;;;;;6162408;28;75462;-68
2023/04/22 10:58:43;;;;;;;;;;;24.10;32.70;;;;;;6158416;28;76400;-68
2023/04/22 11:01:43;;;;;;;;;;;24.30;33.00;;;;;;6157533;28;76137;-68
2023/04/22 11:04:44;;;;;;;;;;;24.40;33.30;;;;;;6168815;28;76351;-68
2023/04/22 11:07:45;;;;;;;;;;;24.50;33.40;;;;;;6160415;28;79674;-67
2023/04/22 11:10:45;;;;;;;;;;;24.60;33.70;;;;;;6160624;28;75926;-65
2023/04/22 11:13:46;;;;;;;;;;;24.70;33.90;;;;;;6159900;28;76383;-66
2023/04/22 11:16:47;;;;;;;;;;;24.70;34.00;;;;;;6161298;28;75391;-64
2023/04/22 11:19:47;;;;;;;;;;;24.80;34.80;;;;;;6158062;28;75983;-64
2023/04/22 11:22:48;;;;;;;;;;;24.80;34.30;;;;;;6165729;28;76901;-65
2023/04/22 13:01:21;;;;;;;;;;;24.70;31.70;;;;;;6170145;28;76899;-64
2023/04/22 13:04:22;;;;;;;;;;;24.80;32.00;;;;;;6208321;28;75763;-62
2023/04/22 13:07:22;;;;;;;;;;;24.80;31.80;;;;;;6208734;28;75682;-64
2023/04/22 13:10:23;;;;;;;;;;;24.80;32.30;;;;;;6208698;28;75243;-64
2023/04/22 13:13:24;;;;;;;;;;;24.90;32.60;;;;;;6209203;28;76127;-65
2023/04/22 13:16:24;;;;;;;;;;;24.90;32.80;;;;;;6197127;28;76534;-64
2023/04/22 13:19:25;;;;;;;;;;;24.90;33.10;;;;;;6209141;28;75382;-68
2023/04/22 13:22:26;;;;;;;;;;;24.90;33.70;;;;;;6209691;28;75216;-63
2023/04/22 13:25:26;;;;;;;;;;;24.90;34.00;;;;;;6209627;28;74972;-65
2023/04/22 13:28:27;;;;;;;;;;;24.90;34.10;;;;;;6209149;28;75827;-66
2023/04/22 13:31:28;;;;;;;;;;;24.90;34.20;;;;;;6208058;28;75739;-66
2023/04/22 13:34:28;;;;;;;;;;;24.90;33.80;;;;;;6210991;28;75950;-67
2023/04/22 13:37:29;;;;;;;;;;;24.90;33.40;;;;;;6209332;28;76413;-67
2023/04/22 13:40:29;;;;;;;;;;;24.90;33.20;;;;;;6200747;28;76707;-66
2023/04/22 13:43:30;;;;;;;;;;;24.90;32.90;;;;;;6209126;28;75277;-67
2023/04/22 13:46:30;;;;;;;;;;;24.80;32.10;;;;;;6207190;28;76893;-65
2023/04/22 13:49:31;;;;;;;;;;;24.70;32.20;;;;;;6209184;28;75709;-66
2023/04/22 13:52:32;;;;;;;;;;;24.80;32.40;;;;;;6209739;28;75512;-71
2023/04/22 13:55:33;;;;;;;;;;;24.80;32.30;;;;;;6209047;28;75898;-70
2023/04/22 13:58:33;;;;;;;;;;;24.80;32.20;;;;;;6205307;28;75365;-66
2023/04/22 14:01:34;;;;;;;;;;;24.90;32.60;;;;;;6207789;28;75383;-66
2023/04/22 14:04:34;;;;;;;;;;;24.90;32.70;;;;;;6208447;28;75306;-66
2023/04/22 14:07:35;;;;;;;;;;;25.00;32.70;;;;;;6207458;28;75601;-65
2023/04/22 14:10:36;;;;;;;;;;;24.90;32.40;;;;;;6207487;28;75370;-63
2023/04/22 14:13:36;;;;;;;;;;;24.90;32.70;;;;;;6206258;28;76266;-63
2023/04/22 14:16:37;;;;;;;;;;;24.90;32.20;;;;;;6201590;28;75516;-63
2023/04/22 14:19:38;;;;;;;;;;;24.90;32.70;;;;;;6209706;28;75902;-62
2023/04/22 14:22:38;;;;;;;;;;;24.90;32.70;;;;;;6208112;28;75291;-64
2023/04/22 14:25:39;;;;;;;;;;;24.80;31.70;;;;;;6210170;28;75563;-66
2023/04/22 14:28:39;;;;;;;;;;;24.80;32.00;;;;;;6210036;28;75473;-67
2023/04/22 14:31:40;;;;;;;;;;;24.70;32.00;;;;;;6206880;28;75388;-66
2023/04/22 14:34:40;;;;;;;;;;;24.70;31.90;;;;;;6209737;28;75186;-65
2023/04/22 14:37:43;;;;;;;;;;;24.80;32.30;;;;;;6208222;28;75729;-65
2023/04/22 14:40:44;;;;;;;;;;;24.80;32.60;;;;;;6199764;28;75296;-65
2023/04/22 14:43:45;;;;;;;;;;;24.80;32.10;;;;;;6205398;28;75624;-65
2023/04/22 14:46:46;;;;;;;;;;;24.70;32.40;;;;;;6209037;28;76415;-65
2023/04/22 14:49:46;;;;;;;;;;;24.70;32.00;;;;;;6210129;28;76098;-66
2023/04/22 14:52:47;;;;;;;;;;;24.70;31.60;;;;;;6208846;28;77260;-65
2023/04/22 14:55:47;;;;;;;;;;;24.60;31.90;;;;;;6208892;28;74832;-65
2023/04/22 14:58:48;;;;;;;;;;;24.60;31.60;;;;;;6207277;28;76627;-64
2023/04/22 15:01:48;;;;;;;;;;;24.60;31.90;;;;;;6207114;28;75188;-65
2023/04/22 15:04:49;;;;;;;;;;;24.60;32.00;;;;;;6209487;28;76757;-64
2023/04/22 15:07:50;;;;;;;;;;;24.60;31.70;;;;;;6202021;28;76605;-68
2023/04/22 15:10:50;;;;;;;;;;;24.60;32.50;;;;;;6205394;28;75903;-67
2023/04/22 15:13:51;;;;;;;;;;;24.60;32.30;;;;;;6194531;28;75921;-66
2023/04/22 15:16:51;;;;;;;;;;;24.70;32.40;;;;;;6208236;28;75274;-67
2023/04/22 15:19:53;;;;;;;;;;;24.70;32.60;;;;;;6207276;28;75350;-67
2023/04/22 15:22:54;;;;;;;;;;;24.70;32.60;;;;;;6207698;28;76446;-66
2023/04/22 15:25:54;;;;;;;;;;;24.70;32.90;;;;;;6205546;28;75139;-64
2023/04/22 15:28:55;;;;;;;;;;;24.70;33.10;;;;;;6208382;28;75932;-64
2023/04/22 15:31:55;;;;;;;;;;;24.80;33.40;;;;;;6208060;28;75206;-63
2023/04/22 15:34:56;;;;;;;;;;;24.80;33.70;;;;;;6207381;28;75950;-64
2023/04/22 15:37:57;;;;;;;;;;;24.80;34.00;;;;;;6206239;28;75165;-64
2023/04/22 15:40:57;;;;;;;;;;;24.80;34.40;;;;;;6198273;28;77012;-65
2023/04/22 15:43:58;;;;;;;;;;;24.80;34.60;;;;;;6205180;28;75253;-66
2023/04/22 15:46:58;;;;;;;;;;;24.80;34.90;;;;;;6205425;28;75899;-66
2023/04/22 15:50:05;;;;;;;;;;;24.80;34.80;;;;;;6203343;28;75917;-66
2023/04/22 15:53:05;;;;;;;;;;;24.80;34.80;;;;;;6204527;28;76034;-65
2023/04/22 15:56:07;;;;;;;;;;;24.80;34.80;;;;;;6204446;28;76328;-65
2023/04/22 15:59:07;;;;;;;;;;;24.80;35.00;;;;;;6203553;28;75200;-64
2023/04/22 17:22:23;;;;;;;;;;;24.20;34.50;;;;;;6218795;28;79503;-66
2023/04/22 17:25:23;;;;;;;;;;;24.20;34.70;;;;;;6234172;28;75352;-66
2023/04/22 17:28:24;;;;;;;;;;;24.30;34.80;;;;;;6234642;28;75816;-63
2023/04/22 17:31:25;;;;;;;;;;;24.30;35.10;;;;;;6234769;28;75305;-64
2023/04/22 17:34:25;;;;;;;;;;;24.40;35.20;;;;;;6234274;28;75322;-65
2023/04/22 17:37:26;;;;;;;;;;;24.40;35.70;;;;;;6234587;28;75940;-66
2023/04/22 17:40:26;;;;;;;;;;;24.30;35.70;;;;;;6225342;28;75326;-66
2023/04/22 17:43:27;;;;;;;;;;;24.30;35.90;;;;;;6234383;28;75978;-66
2023/04/22 17:46:27;;;;;;;;;;;24.30;35.80;;;;;;6234294;28;75959;-67
2023/04/22 17:49:28;;;;;;;;;;;24.30;36.10;;;;;;6234319;28;75400;-67
2023/04/22 17:52:28;;;;;;;;;;;24.40;36.00;;;;;;6234184;28;75354;-63
2023/04/22 17:55:31;;;;;;;;;;;24.30;36.20;;;;;;6233803;28;76252;-63
2023/04/22 17:58:37;;;;;;;;;;;24.30;36.50;;;;;;6241738;28;74780;-66
2023/04/22 18:01:40;;;;;;;;;;;24.30;36.90;;;;;;6234346;28;75245;-71
2023/04/22 18:04:41;;;;;;;;;;;24.30;36.80;;;;;;6234540;28;75419;-78
2023/04/22 18:07:41;;;;;;;;;;;24.30;36.80;;;;;;6234688;28;74987;-70
2023/04/22 18:10:42;;;;;;;;;;;24.30;37.00;;;;;;6233973;28;75805;-66
2023/04/22 18:13:42;;;;;;;;;;;24.30;37.20;;;;;;6228159;28;75255;-62
2023/04/22 18:16:43;;;;;;;;;;;24.30;37.20;;;;;;6235125;28;76209;-66
2023/04/22 18:19:44;;;;;;;;;;;24.30;37.30;;;;;;6235764;28;75792;-62
2023/04/22 18:22:44;;;;;;;;;;;24.30;37.50;;;;;;6212159;28;76714;-61
2023/04/22 18:25:46;;;;;;;;;;;24.30;37.70;;;;;;6192389;28;75572;-60
2023/04/22 18:28:47;;;;;;;;;;;24.30;37.80;;;;;;6193673;28;76249;-63
2023/04/22 18:31:47;;;;;;;;;;;24.40;37.90;;;;;;6195000;28;76386;-63
2023/04/22 18:34:48;;;;;;;;;;;24.40;38.10;;;;;;6197921;28;76188;-62
2023/04/22 18:37:48;;;;;;;;;;;24.40;38.10;;;;;;6193486;28;75449;-61
2023/04/22 18:40:49;;;;;;;;;;;24.40;38.20;;;;;;6183786;28;75785;-62
2023/04/22 18:43:49;;;;;;;;;;;24.40;38.20;;;;;;6194097;28;78735;-62
2023/04/22 18:46:52;;;;;;;;;;;24.40;38.40;;;;;;6196316;28;76131;-64
2023/04/22 18:49:53;;;;;;;;;;;24.40;38.40;;;;;;6197573;28;76724;-64
2023/04/22 18:52:53;;;;;;;;;;;24.40;38.50;;;;;;6196168;28;75650;-63
2023/04/22 18:55:54;;;;;;;;;;;24.40;38.60;;;;;;6192119;28;75359;-64
2023/04/22 18:58:54;;;;;;;;;;;24.40;38.60;;;;;;6196680;28;75393;-64
2023/04/22 19:01:55;;;;;;;;;;;24.50;38.60;;;;;;6194360;28;75864;-64
2023/04/22 19:04:56;;;;;;;;;;;24.50;38.60;;;;;;6196961;28;76157;-65
2023/04/22 19:07:56;;;;;;;;;;;24.50;38.70;;;;;;6190507;28;76217;-63
2023/04/22 19:10:57;;;;;;;;;;;24.50;38.80;;;;;;6191715;28;76385;-65
2023/04/22 19:13:58;;;;;;;;;;;24.50;38.80;;;;;;6195048;28;76554;-64
2023/04/22 19:16:58;;;;;;;;;;;24.60;38.80;;;;;;6196307;28;81083;-65
2023/04/22 19:19:59;;;;;;;;;;;24.60;38.80;;;;;;6194417;28;76479;-65
2023/04/22 19:22:59;;;;;;;;;;;24.60;38.80;;;;;;6202892;28;77203;-67
2023/04/22 19:26:00;;;;;;;;;;;24.60;38.80;;;;;;6214699;28;76215;-67
2023/04/22 19:29:01;;;;;;;;;;;24.60;38.80;;;;;;6219527;28;77012;-66
2023/04/22 19:32:02;;;;;;;;;;;24.60;38.80;;;;;;6216388;28;75820;-64
2023/04/22 19:35:03;;;;;;;;;;;24.60;38.80;;;;;;6213623;28;75872;-65
2023/04/22 19:38:04;;;;;;;;;;;24.60;38.80;;;;;;6216719;28;75658;-64
2023/04/22 19:41:04;;;;;;;;;;;24.60;38.80;;;;;;6213284;28;75510;-64
2023/04/22 19:44:05;;;;;;;;;;;24.60;38.90;;;;;;6220840;28;75406;-64
2023/04/22 19:47:05;;;;;;;;;;;24.60;38.90;;;;;;6223168;28;75839;-63
2023/04/22 19:50:06;;;;;;;;;;;24.50;38.80;;;;;;6216544;28;75735;-64
2023/04/22 19:53:06;;;;;;;;;;;24.50;38.90;;;;;;6218234;28;76566;-63
2023/04/22 19:56:07;;;;;;;;;;;24.50;38.90;;;;;;6220764;28;79019;-62
2023/04/22 19:59:07;;;;;;;;;;;24.50;38.90;;;;;;6219096;28;76188;-68
2023/04/22 20:02:08;;;;;;;;;;;24.50;38.90;;;;;;6227498;27;78048;-68
2023/04/22 20:05:09;;;;;;;;;;;24.50;38.90;;;;;;6220792;28;75721;-68
2023/04/22 20:08:10;;;;;;;;;;;24.50;38.80;;;;;;6215914;28;75624;-69
2023/04/22 20:11:10;;;;;;;;;;;24.50;39.00;;;;;;6220823;28;77071;-65
2023/04/22 20:14:12;;;;;;;;;;;24.50;38.90;;;;;;6226291;28;75519;-68
2023/04/22 20:17:12;;;;;;;;;;;24.50;38.90;;;;;;6226211;28;76462;-67
2023/04/22 20:20:16;;;;;;;;;;;24.50;38.80;;;;;;6220141;28;80878;-66
2023/04/22 22:37:35;;;;;;;;;;;24.20;40.00;;;;;;6223022;28;77069;-63
2023/04/22 22:40:35;;;;;;;;;;;24.20;40.10;;;;;;6233371;28;75928;-63
2023/04/22 22:43:36;;;;;;;;;;;24.10;40.10;;;;;;6232248;28;77978;-63